La Junta, CO

2:52 AM MDT on August 22, 2014 (GMT -0600)
La Junta Municipal | Change Station
CLOSE
Current Station
Airport
Location: La Junta,
Elevation: 4239 ft
Nearby Weather Stations

Elev 4239 ft 38.05 °N, 103.51 °W | Updated 59 minutes ago

Clear
Clear
75 °F
Feels Like 75 °F
N
4
Wind Variable Wind from ESE

Today
High -- | Low -- °F
--% Chance of Precip.
Yesterday
High -- | Low -- °F
Precip. -- in
6:15 AM 7:37 PM
Waning Crescent, 9% visible
Pressure 29.77 in
Visibility 10.0 miles
Clouds Clear
Dew Point 51 °F
Humidity 43%
Rainfall 0.00 in
Snow Depth Not available.
UV 0 out of 12
Pollen 10.10 out of 12
Air Quality Not available.
Flu Activity Not available.
METAR KLHX 220753Z AUTO 12003KT 10SM CLR 24/11 A2998 RMK AO2 SLP080 T02390106

More Conditions Fewer Conditions

Pressure 29.77 in
Visibility 10.0 miles
Clouds Clear
Dew Point 51 °F
Humidity 43%
Rainfall 0.00 in
Snow Depth Not available.
UV 0 out of 12
Pollen 10.10 out of 12
Air Quality Not available.
Flu Activity Not available.
METAR KLHX 220753Z AUTO 12003KT 10SM CLR 24/11 A2998 RMK AO2 SLP080 T02390106

More Conditions Fewer Conditions

10-Day Weather Forecast

Almanac

Astronomy

Aug. 22, 2014 Rise Set
Actual Time 6:15 AM MDT 7:37 PM MDT
Civil Twilight 5:47 AM MDT 8:05 PM MDT
Nautical Twilight 5:14 AM MDT 8:38 PM MDT
Astronomical Twilight 4:40 AM MDT 9:12 PM MDT
Moon 3:41 AM MDT 5:46 PM MDT
Length of Visible Light 14h 17m
Length of Day
13h 22m
Tomorrow will be 2m 15s shorter.
Waning Crescent, 9% of the Moon is Illuminated
Today
Waning Crescent
Aug 25
New
Sep 2
First Quarter
Sep 8
Full
Sep 15
Last Quarter

Today's Extremes

State Highs State Lows

Community

WunderPhotos

Upload Photos

1,746,144 photos uploaded!

Nearby

Snow Depth

Station Depth Elevation
Trinchera 0 in 10860 ft
Ute Creek 0 in 10650 ft
Medano Pass 0 in 9620 ft
Culebra #2 0 in 10500 ft
Glen Cove 0 in 11460 ft

Earthquake Activity

City Distance Mag. Time & Date
No recent earthquake activity has been reported nearby.
Minimum magnitude displayed is 2.5.

Coastal Water Temperatures

Place Temperature
No Stations Reporting

Nearby Weather Stations